UAL731 MYNN-KMIA
Flight info
| Callsign | UAL731 |
|---|---|
| Flight time | 0h 39m |
| Altitude | 24000 |
| Route | FREDY2 NICKO VIICE2 |
| Aircraft | B738/M-SDE2E3FGHIRWXY/LB1 |
Departure
| Time | 2026-05-06 01:31 |
|---|---|
| Airport | Lynden Pindling International Airport (MYNN) |
Arrival
| Time | 2026-05-06 02:10 |
|---|---|
| Airport | Miami International Airport (KMIA) |
| Time | Latitude | Longitude | Altitude | Speed | Heading |
|---|---|---|---|---|---|
| 2026-05-06 00:59 | 25.05050 | -77.46887 | 12 ft | 0 kts | 352° |
| 2026-05-06 01:18 | 25.05049 | -77.46887 | 11 ft | 2 kts | 352° |
| 2026-05-06 01:18 | 25.05032 | -77.46883 | 13 ft | 2 kts | 345° |
| 2026-05-06 01:19 | 25.05017 | -77.46877 | 12 ft | 2 kts | 333° |
| 2026-05-06 01:19 | 25.05003 | -77.46867 | 14 ft | 2 kts | 309° |
| 2026-05-06 01:19 | 25.04996 | -77.46851 | 13 ft | 2 kts | 273° |
| 2026-05-06 01:19 | 25.04997 | -77.46837 | 14 ft | 1 kts | 252° |
| 2026-05-06 01:20 | 25.04998 | -77.46836 | 13 ft | 0 kts | 251° |
| 2026-05-06 01:24 | 25.04997 | -77.46838 | 11 ft | 2 kts | 249° |
| 2026-05-06 01:24 | 25.04992 | -77.46850 | 12 ft | 0 kts | 246° |
| 2026-05-06 01:25 | 25.04992 | -77.46851 | 12 ft | 0 kts | 246° |
| 2026-05-06 01:26 | 25.04991 | -77.46851 | 12 ft | 0 kts | 246° |
| 2026-05-06 01:26 | 25.04984 | -77.46870 | 11 ft | 6 kts | 246° |
| 2026-05-06 01:26 | 25.04956 | -77.46915 | 12 ft | 8 kts | 211° |
| 2026-05-06 01:27 | 25.04911 | -77.46946 | 11 ft | 8 kts | 226° |
| 2026-05-06 01:27 | 25.04915 | -77.47005 | 13 ft | 10 kts | 304° |
| 2026-05-06 01:27 | 25.04980 | -77.47079 | 12 ft | 16 kts | 315° |
| 2026-05-06 01:27 | 25.05061 | -77.47171 | 11 ft | 16 kts | 313° |
| 2026-05-06 01:28 | 25.05139 | -77.47259 | 12 ft | 16 kts | 316° |
| 2026-05-06 01:28 | 25.05210 | -77.47348 | 11 ft | 15 kts | 297° |
| 2026-05-06 01:28 | 25.05212 | -77.47458 | 12 ft | 15 kts | 246° |
| 2026-05-06 01:28 | 25.05161 | -77.47526 | 11 ft | 10 kts | 190° |
| 2026-05-06 01:29 | 25.05146 | -77.47520 | 11 ft | 0 kts | 140° |
| 2026-05-06 01:30 | 25.05142 | -77.47516 | 11 ft | 5 kts | 136° |
| 2026-05-06 01:30 | 25.04972 | -77.47326 | 11 ft | 69 kts | 135° |
| 2026-05-06 01:30 | 25.04486 | -77.46787 | 14 ft | 127 kts | 135° |
| 2026-05-06 01:31 | 25.03780 | -77.46011 | 260 ft | 147 kts | 136° |
| 2026-05-06 01:31 | 25.03013 | -77.45186 | 668 ft | 162 kts | 140° |
| 2026-05-06 01:31 | 25.02197 | -77.44331 | 1282 ft | 162 kts | 140° |
| 2026-05-06 01:31 | 25.01325 | -77.43389 | 1603 ft | 191 kts | 135° |
| 2026-05-06 01:32 | 25.00333 | -77.42257 | 1929 ft | 216 kts | 135° |
| 2026-05-06 01:32 | 24.99262 | -77.41051 | 2396 ft | 224 kts | 139° |
| 2026-05-06 01:32 | 24.97871 | -77.40338 | 3036 ft | 223 kts | 178° |
| 2026-05-06 01:32 | 24.96393 | -77.40719 | 3784 ft | 220 kts | 214° |
| 2026-05-06 01:33 | 24.95376 | -77.41935 | 4540 ft | 218 kts | 245° |
| 2026-05-06 01:33 | 24.95077 | -77.43541 | 5239 ft | 220 kts | 271° |
| 2026-05-06 01:33 | 24.94953 | -77.45235 | 6016 ft | 220 kts | 256° |
| 2026-05-06 01:33 | 24.94351 | -77.46760 | 6756 ft | 222 kts | 238° |
| 2026-05-06 01:34 | 24.93330 | -77.48039 | 7557 ft | 222 kts | 225° |
| 2026-05-06 01:34 | 24.92189 | -77.49216 | 8464 ft | 226 kts | 228° |
| 2026-05-06 01:34 | 24.91334 | -77.50716 | 8957 ft | 247 kts | 258° |
| 2026-05-06 01:34 | 24.91371 | -77.52690 | 9469 ft | 267 kts | 277° |
| 2026-05-06 01:35 | 24.91653 | -77.54737 | 10321 ft | 274 kts | 278° |
| 2026-05-06 01:35 | 24.91951 | -77.56909 | 10642 ft | 301 kts | 277° |
| 2026-05-06 01:35 | 24.92265 | -77.59279 | 11016 ft | 321 kts | 277° |
| 2026-05-06 01:35 | 24.92582 | -77.61749 | 11726 ft | 328 kts | 277° |
| 2026-05-06 01:36 | 24.92893 | -77.64253 | 12561 ft | 332 kts | 277° |
| 2026-05-06 01:36 | 24.93202 | -77.66791 | 13363 ft | 336 kts | 277° |
| 2026-05-06 01:36 | 24.93509 | -77.69364 | 14114 ft | 341 kts | 277° |
| 2026-05-06 01:36 | 24.93817 | -77.71971 | 14808 ft | 345 kts | 277° |
| 2026-05-06 01:37 | 24.94134 | -77.74605 | 15520 ft | 348 kts | 279° |
| 2026-05-06 01:37 | 24.94628 | -77.77227 | 16267 ft | 351 kts | 283° |
| 2026-05-06 01:37 | 24.95236 | -77.79840 | 16976 ft | 354 kts | 285° |
| 2026-05-06 01:37 | 24.95882 | -77.82477 | 17664 ft | 358 kts | 285° |
| 2026-05-06 01:38 | 24.96538 | -77.85143 | 18328 ft | 363 kts | 285° |
| 2026-05-06 01:38 | 24.97193 | -77.87839 | 18925 ft | 366 kts | 285° |
| 2026-05-06 01:38 | 24.97843 | -77.90551 | 19577 ft | 366 kts | 285° |
| 2026-05-06 01:38 | 24.98487 | -77.93272 | 20226 ft | 368 kts | 285° |
| 2026-05-06 01:39 | 24.99129 | -77.96009 | 20844 ft | 370 kts | 285° |
| 2026-05-06 01:39 | 24.99771 | -77.98760 | 21415 ft | 372 kts | 285° |
| 2026-05-06 01:39 | 25.00415 | -78.01532 | 21959 ft | 376 kts | 285° |
| 2026-05-06 01:39 | 25.01072 | -78.04368 | 22035 ft | 388 kts | 285° |
| 2026-05-06 01:40 | 25.01748 | -78.07290 | 22053 ft | 398 kts | 285° |
| 2026-05-06 01:40 | 25.02436 | -78.10269 | 22055 ft | 402 kts | 285° |
| 2026-05-06 01:40 | 25.03122 | -78.13245 | 22041 ft | 398 kts | 285° |
| 2026-05-06 01:40 | 25.03801 | -78.16195 | 22042 ft | 396 kts | 285° |
| 2026-05-06 01:41 | 25.04477 | -78.19132 | 22043 ft | 394 kts | 285° |
| 2026-05-06 01:41 | 25.05141 | -78.22020 | 22048 ft | 394 kts | 285° |
| 2026-05-06 01:41 | 25.05813 | -78.24944 | 22051 ft | 394 kts | 285° |
| 2026-05-06 01:41 | 25.06485 | -78.27875 | 22052 ft | 394 kts | 285° |
| 2026-05-06 01:42 | 25.07159 | -78.30811 | 22054 ft | 395 kts | 285° |
| 2026-05-06 01:42 | 25.07833 | -78.33752 | 22054 ft | 396 kts | 285° |
| 2026-05-06 01:42 | 25.08508 | -78.36703 | 22052 ft | 397 kts | 285° |
| 2026-05-06 01:42 | 25.09184 | -78.39656 | 22052 ft | 398 kts | 285° |
| 2026-05-06 01:43 | 25.09641 | -78.41656 | 22054 ft | 398 kts | 285° |
| 2026-05-06 01:43 | 25.10307 | -78.44577 | 22054 ft | 398 kts | 285° |
| 2026-05-06 01:43 | 25.10983 | -78.47539 | 22053 ft | 398 kts | 285° |
| 2026-05-06 01:43 | 25.11658 | -78.50501 | 22053 ft | 398 kts | 285° |
| 2026-05-06 01:44 | 25.12331 | -78.53460 | 22054 ft | 398 kts | 285° |
| 2026-05-06 01:44 | 25.13005 | -78.56423 | 22054 ft | 398 kts | 285° |
| 2026-05-06 01:44 | 25.13677 | -78.59382 | 22053 ft | 397 kts | 285° |
| 2026-05-06 01:44 | 25.14349 | -78.62341 | 22053 ft | 397 kts | 285° |
| 2026-05-06 01:45 | 25.15018 | -78.65294 | 22051 ft | 397 kts | 285° |
| 2026-05-06 01:45 | 25.15688 | -78.68252 | 22055 ft | 397 kts | 285° |
| 2026-05-06 01:45 | 25.16356 | -78.71204 | 22050 ft | 396 kts | 285° |
| 2026-05-06 01:45 | 25.17020 | -78.74144 | 22053 ft | 396 kts | 285° |
| 2026-05-06 01:46 | 25.17689 | -78.77102 | 22049 ft | 396 kts | 285° |
| 2026-05-06 01:46 | 25.18354 | -78.80051 | 22050 ft | 396 kts | 285° |
| 2026-05-06 01:46 | 25.19018 | -78.82999 | 22052 ft | 396 kts | 285° |
| 2026-05-06 01:46 | 25.19682 | -78.85944 | 22053 ft | 396 kts | 285° |
| 2026-05-06 01:47 | 25.20336 | -78.88854 | 22051 ft | 396 kts | 285° |
| 2026-05-06 01:47 | 25.20999 | -78.91804 | 22053 ft | 396 kts | 285° |
| 2026-05-06 01:47 | 25.21661 | -78.94752 | 22053 ft | 396 kts | 285° |
| 2026-05-06 01:47 | 25.22323 | -78.97703 | 22051 ft | 396 kts | 285° |
| 2026-05-06 01:48 | 25.22984 | -79.00655 | 22066 ft | 396 kts | 285° |
| 2026-05-06 01:48 | 25.23645 | -79.03608 | 22065 ft | 396 kts | 285° |
| 2026-05-06 01:48 | 25.24305 | -79.06561 | 22054 ft | 396 kts | 285° |
| 2026-05-06 01:48 | 25.24958 | -79.09482 | 21795 ft | 386 kts | 285° |
| 2026-05-06 01:49 | 25.25588 | -79.12312 | 21548 ft | 374 kts | 285° |
| 2026-05-06 01:49 | 25.26204 | -79.15076 | 21298 ft | 368 kts | 285° |
| 2026-05-06 01:49 | 25.26816 | -79.17823 | 21060 ft | 369 kts | 285° |
| 2026-05-06 01:49 | 25.27429 | -79.20573 | 20827 ft | 369 kts | 285° |
| 2026-05-06 01:50 | 25.28042 | -79.23327 | 20591 ft | 369 kts | 285° |
| 2026-05-06 01:50 | 25.28654 | -79.26081 | 20357 ft | 369 kts | 285° |
| 2026-05-06 01:50 | 25.29265 | -79.28835 | 20122 ft | 369 kts | 285° |
| 2026-05-06 01:50 | 25.29875 | -79.31587 | 19890 ft | 368 kts | 285° |
| 2026-05-06 01:51 | 25.30647 | -79.35074 | 19598 ft | 367 kts | 284° |
| 2026-05-06 01:51 | 25.31253 | -79.37811 | 19369 ft | 366 kts | 284° |
| 2026-05-06 01:51 | 25.31856 | -79.40542 | 19142 ft | 365 kts | 284° |
| 2026-05-06 01:51 | 25.32457 | -79.43264 | 18921 ft | 364 kts | 284° |
| 2026-05-06 01:52 | 25.32854 | -79.45063 | 18769 ft | 363 kts | 284° |
| 2026-05-06 01:52 | 25.33452 | -79.47774 | 18547 ft | 363 kts | 284° |
| 2026-05-06 01:52 | 25.34047 | -79.50477 | 18321 ft | 362 kts | 284° |
| 2026-05-06 01:52 | 25.34641 | -79.53173 | 18064 ft | 361 kts | 284° |
| 2026-05-06 01:53 | 25.35233 | -79.55865 | 17808 ft | 360 kts | 284° |
| 2026-05-06 01:53 | 25.35822 | -79.58550 | 17555 ft | 359 kts | 284° |
| 2026-05-06 01:53 | 25.36410 | -79.61230 | 17303 ft | 358 kts | 284° |
| 2026-05-06 01:53 | 25.36996 | -79.63900 | 17052 ft | 357 kts | 284° |
| 2026-05-06 01:54 | 25.37580 | -79.66565 | 16794 ft | 355 kts | 284° |
| 2026-05-06 01:54 | 25.38159 | -79.69210 | 16365 ft | 352 kts | 284° |
| 2026-05-06 01:54 | 25.38763 | -79.71818 | 15902 ft | 349 kts | 289° |
| 2026-05-06 01:54 | 25.39872 | -79.74178 | 15444 ft | 346 kts | 304° |
| 2026-05-06 01:55 | 25.41281 | -79.76321 | 14994 ft | 344 kts | 306° |
| 2026-05-06 01:55 | 25.42692 | -79.78448 | 14528 ft | 342 kts | 305° |
| 2026-05-06 01:55 | 25.44087 | -79.80575 | 14053 ft | 341 kts | 305° |
| 2026-05-06 01:55 | 25.45465 | -79.82705 | 13553 ft | 340 kts | 305° |
| 2026-05-06 01:56 | 25.46829 | -79.84828 | 13128 ft | 336 kts | 304° |
| 2026-05-06 01:56 | 25.48156 | -79.86898 | 12969 ft | 325 kts | 304° |
| 2026-05-06 01:56 | 25.49461 | -79.88934 | 12520 ft | 323 kts | 304° |
| 2026-05-06 01:56 | 25.50756 | -79.90957 | 12113 ft | 321 kts | 304° |
| 2026-05-06 01:57 | 25.52041 | -79.92966 | 11707 ft | 319 kts | 304° |
| 2026-05-06 01:57 | 25.53320 | -79.94965 | 11297 ft | 317 kts | 304° |
| 2026-05-06 01:57 | 25.54587 | -79.96945 | 11051 ft | 310 kts | 304° |
| 2026-05-06 01:57 | 25.55814 | -79.98863 | 10903 ft | 300 kts | 304° |
| 2026-05-06 01:58 | 25.57001 | -80.00720 | 10766 ft | 291 kts | 304° |
| 2026-05-06 01:58 | 25.58152 | -80.02521 | 10623 ft | 282 kts | 303° |
| 2026-05-06 01:58 | 25.59277 | -80.04283 | 10354 ft | 280 kts | 303° |
| 2026-05-06 01:58 | 25.60389 | -80.06025 | 10186 ft | 273 kts | 303° |
| 2026-05-06 01:59 | 25.61469 | -80.07717 | 10061 ft | 265 kts | 304° |
| 2026-05-06 01:59 | 25.62529 | -80.09379 | 9781 ft | 264 kts | 303° |
| 2026-05-06 01:59 | 25.63585 | -80.11035 | 9493 ft | 262 kts | 304° |
| 2026-05-06 01:59 | 25.64634 | -80.12682 | 9202 ft | 261 kts | 304° |
| 2026-05-06 02:00 | 25.65642 | -80.14321 | 8929 ft | 259 kts | 298° |
| 2026-05-06 02:00 | 25.66438 | -80.16110 | 8704 ft | 260 kts | 294° |
| 2026-05-06 02:00 | 25.67186 | -80.17949 | 8462 ft | 263 kts | 294° |
| 2026-05-06 02:00 | 25.67951 | -80.19806 | 8232 ft | 266 kts | 294° |
| 2026-05-06 02:01 | 25.68731 | -80.21672 | 7980 ft | 266 kts | 294° |
| 2026-05-06 02:01 | 25.69512 | -80.23530 | 7717 ft | 267 kts | 294° |
| 2026-05-06 02:01 | 25.70301 | -80.25395 | 7446 ft | 267 kts | 295° |
| 2026-05-06 02:01 | 25.71055 | -80.27274 | 7175 ft | 267 kts | 287° |
| 2026-05-06 02:02 | 25.71220 | -80.29306 | 6919 ft | 265 kts | 267° |
| 2026-05-06 02:02 | 25.71113 | -80.31337 | 6653 ft | 264 kts | 266° |
| 2026-05-06 02:02 | 25.71003 | -80.33368 | 6395 ft | 262 kts | 266° |
| 2026-05-06 02:02 | 25.70899 | -80.35376 | 6104 ft | 258 kts | 267° |
| 2026-05-06 02:03 | 25.70801 | -80.37346 | 5828 ft | 254 kts | 267° |
| 2026-05-06 02:03 | 25.70706 | -80.39283 | 5575 ft | 249 kts | 267° |
| 2026-05-06 02:03 | 25.70614 | -80.41198 | 5322 ft | 248 kts | 267° |
| 2026-05-06 02:03 | 25.70524 | -80.43077 | 5097 ft | 239 kts | 267° |
| 2026-05-06 02:04 | 25.70415 | -80.44863 | 5024 ft | 227 kts | 265° |
| 2026-05-06 02:04 | 25.70284 | -80.46589 | 5012 ft | 222 kts | 265° |
| 2026-05-06 02:04 | 25.70285 | -80.48282 | 4992 ft | 219 kts | 284° |
| 2026-05-06 02:04 | 25.71029 | -80.49737 | 4837 ft | 220 kts | 317° |
| 2026-05-06 02:05 | 25.72371 | -80.50509 | 4444 ft | 221 kts | 347° |
| 2026-05-06 02:05 | 25.73903 | -80.50729 | 3971 ft | 223 kts | 356° |
| 2026-05-06 02:05 | 25.75417 | -80.50439 | 3460 ft | 223 kts | 27° |
| 2026-05-06 02:05 | 25.76562 | -80.49323 | 3124 ft | 217 kts | 51° |
| 2026-05-06 02:06 | 25.77496 | -80.48021 | 3012 ft | 218 kts | 54° |
| 2026-05-06 02:06 | 25.78047 | -80.46436 | 2666 ft | 224 kts | 85° |
| 2026-05-06 02:06 | 25.78052 | -80.44737 | 2345 ft | 215 kts | 88° |
| 2026-05-06 02:06 | 25.78125 | -80.43150 | 2075 ft | 197 kts | 86° |
| 2026-05-06 02:07 | 25.78194 | -80.41694 | 1835 ft | 180 kts | 86° |
| 2026-05-06 02:07 | 25.78248 | -80.40390 | 1612 ft | 160 kts | 87° |
| 2026-05-06 02:07 | 25.78294 | -80.39229 | 1404 ft | 142 kts | 86° |
| 2026-05-06 02:07 | 25.78338 | -80.38169 | 1244 ft | 136 kts | 86° |
| 2026-05-06 02:08 | 25.78374 | -80.37131 | 1055 ft | 132 kts | 86° |
| 2026-05-06 02:08 | 25.78422 | -80.36115 | 901 ft | 131 kts | 87° |
| 2026-05-06 02:08 | 25.78462 | -80.35109 | 754 ft | 131 kts | 86° |
| 2026-05-06 02:08 | 25.78502 | -80.34100 | 574 ft | 131 kts | 86° |
| 2026-05-06 02:09 | 25.78550 | -80.33126 | 452 ft | 122 kts | 88° |
| 2026-05-06 02:09 | 25.78590 | -80.32180 | 290 ft | 124 kts | 86° |
| 2026-05-06 02:09 | 25.78616 | -80.31207 | 95 ft | 127 kts | 86° |
| 2026-05-06 02:09 | 25.78653 | -80.30271 | 23 ft | 113 kts | 84° |
| 2026-05-06 02:10 | 25.78691 | -80.29552 | 19 ft | 72 kts | 87° |
| 2026-05-06 02:10 | 25.78718 | -80.29038 | 19 ft | 62 kts | 87° |
| 2026-05-06 02:10 | 25.78774 | -80.28727 | 22 ft | 21 kts | 50° |
| 2026-05-06 02:10 | 25.78795 | -80.28702 | 20 ft | 0 kts | 46° |
| 2026-05-06 02:11 | 25.78797 | -80.28699 | 19 ft | 2 kts | 45° |
| 2026-05-06 02:11 | 25.78825 | -80.28674 | 19 ft | 9 kts | 39° |
| 2026-05-06 02:11 | 25.78894 | -80.28611 | 19 ft | 16 kts | 38° |
| 2026-05-06 02:12 | 25.79001 | -80.28527 | 20 ft | 21 kts | 36° |
| 2026-05-06 02:12 | 25.79126 | -80.28428 | 20 ft | 22 kts | 28° |
| 2026-05-06 02:12 | 25.79238 | -80.28376 | 22 ft | 16 kts | 41° |
| 2026-05-06 02:12 | 25.79287 | -80.28312 | 22 ft | 10 kts | 75° |
| 2026-05-06 02:13 | 25.79259 | -80.28255 | 23 ft | 3 kts | 140° |
| 2026-05-06 02:13 | 25.79245 | -80.28240 | 23 ft | 0 kts | 134° |